createdAt,value
2018-08-03T00:01:17.039Z,4.55
2018-08-03T00:03:44.234Z,4.10
2018-08-03T00:06:11.444Z,3.90
2018-08-03T00:08:38.720Z,4.42
2018-08-03T00:11:05.897Z,4.25
2018-08-03T00:13:33.057Z,4.30
2018-08-03T00:16:00.262Z,4.37
2018-08-03T00:18:27.491Z,4.40
2018-08-03T00:20:54.647Z,4.50
2018-08-03T00:23:21.786Z,3.92
2018-08-03T00:25:48.894Z,3.70
2018-08-03T00:28:16.044Z,4.60
2018-08-03T00:30:43.195Z,4.40
2018-08-03T00:33:10.356Z,4.37
2018-08-03T00:35:37.499Z,4.37
2018-08-03T00:38:04.844Z,4.30
2018-08-03T00:40:32.049Z,4.00
2018-08-03T00:42:59.220Z,4.10
2018-08-03T00:45:26.353Z,4.40
2018-08-03T00:47:53.742Z,4.50
2018-08-03T00:50:20.908Z,4.33
2018-08-03T00:52:48.056Z,4.45
2018-08-03T00:55:15.230Z,3.92
2018-08-03T00:57:43.187Z,4.03
2018-08-03T01:00:10.357Z,4.42
2018-08-03T01:02:37.547Z,4.60
2018-08-03T01:05:05.064Z,4.30
2018-08-03T01:07:32.262Z,4.58
2018-08-03T01:09:59.448Z,4.30
2018-08-03T01:12:26.629Z,4.33
2018-08-03T01:14:53.776Z,4.72
2018-08-03T01:17:20.981Z,4.15
2018-08-03T01:19:48.156Z,4.70
2018-08-03T01:22:15.354Z,4.15
2018-08-03T01:24:42.503Z,4.33
2018-08-03T01:27:09.766Z,4.25
2018-08-03T01:29:36.937Z,4.70
2018-08-03T01:32:04.121Z,4.50
2018-08-03T01:34:31.273Z,4.08
2018-08-03T01:36:58.498Z,3.95
2018-08-03T01:39:25.743Z,4.15
2018-08-03T01:41:52.966Z,4.53
2018-08-03T01:44:20.172Z,4.15
2018-08-03T01:46:47.353Z,4.60
2018-08-03T01:49:14.517Z,4.10
2018-08-03T01:51:41.637Z,3.92
2018-08-03T01:54:08.809Z,4.12
2018-08-03T01:56:36.008Z,4.72
2018-08-03T01:59:03.437Z,4.47
2018-08-03T02:01:30.618Z,4.20
2018-08-03T02:03:58.407Z,4.25
2018-08-03T02:06:26.643Z,4.17
2018-08-03T02:08:53.816Z,4.08
2018-08-03T02:11:20.976Z,3.98
2018-08-03T02:13:48.089Z,4.08
2018-08-03T02:16:15.284Z,4.03
2018-08-03T02:18:42.463Z,3.90
2018-08-03T02:21:09.625Z,4.10
2018-08-03T02:23:36.916Z,3.65
2018-08-03T02:26:04.074Z,4.10
2018-08-03T02:28:31.272Z,4.33
2018-08-03T02:30:58.414Z,3.92
2018-08-03T02:33:25.550Z,4.10
2018-08-03T02:35:52.774Z,4.35
2018-08-03T02:38:19.976Z,4.03
2018-08-03T02:40:47.102Z,4.15
2018-08-03T02:43:14.269Z,4.40
2018-08-03T02:45:41.458Z,4.45
2018-08-03T02:48:08.692Z,4.72
2018-08-03T02:50:35.871Z,4.62
2018-08-03T02:53:03.037Z,4.45
2018-08-03T02:55:30.301Z,4.30
2018-08-03T02:57:57.465Z,5.12
2018-08-03T03:00:24.649Z,4.40
2018-08-03T03:02:51.846Z,4.60
2018-08-03T03:05:18.991Z,4.62
2018-08-03T03:07:46.125Z,4.90
2018-08-03T03:10:13.306Z,4.70
2018-08-03T03:12:40.502Z,4.60
2018-08-03T03:15:08.032Z,5.10
2018-08-03T03:17:35.208Z,4.72
2018-08-03T03:20:02.368Z,4.90
2018-08-03T03:22:29.511Z,4.85
2018-08-03T03:24:56.634Z,4.83
2018-08-03T03:27:23.808Z,4.75
2018-08-03T03:29:50.993Z,5.03
2018-08-03T03:32:18.148Z,4.92
2018-08-03T03:34:45.382Z,5.08
2018-08-03T03:37:12.570Z,5.17
2018-08-03T03:39:39.837Z,5.15
2018-08-03T03:42:07.180Z,5.20
2018-08-03T03:44:34.332Z,5.03
2018-08-03T03:47:01.534Z,4.70
2018-08-03T03:49:28.734Z,4.95
2018-08-03T03:51:55.910Z,4.55
2018-08-03T03:54:23.119Z,4.70
2018-08-03T03:56:50.278Z,4.90
2018-08-03T03:59:17.474Z,5.10
2018-08-03T04:01:44.643Z,5.00
2018-08-03T04:04:11.864Z,4.45
2018-08-03T04:06:39.005Z,4.87
2018-08-03T04:09:07.867Z,4.70
2018-08-03T04:11:35.037Z,4.58
2018-08-03T04:14:02.213Z,4.58
2018-08-03T04:16:29.388Z,4.62
2018-08-03T04:18:56.664Z,4.60
2018-08-03T04:21:23.801Z,4.83
2018-08-03T04:23:50.973Z,4.58
2018-08-03T04:26:18.160Z,4.78
2018-08-03T04:28:45.339Z,4.20
2018-08-03T04:31:12.528Z,4.42
2018-08-03T04:33:39.674Z,4.78
2018-08-03T04:36:06.909Z,5.30
2018-08-03T04:38:34.091Z,5.10
2018-08-03T04:41:01.369Z,4.90
2018-08-03T04:43:28.527Z,5.30
2018-08-03T04:45:55.715Z,5.53
2018-08-03T04:48:22.851Z,6.40
2018-08-03T04:50:49.986Z,5.85
2018-08-03T04:53:17.121Z,7.42
2018-08-03T04:55:44.276Z,7.85
2018-08-03T04:58:11.448Z,8.90
2018-08-03T05:00:38.679Z,9.68
2018-08-03T05:03:05.926Z,9.85
2018-08-03T05:05:33.097Z,10.53
2018-08-03T05:08:00.378Z,10.70
2018-08-03T05:10:27.506Z,11.25
2018-08-03T05:12:54.664Z,11.28
2018-08-03T05:15:21.882Z,10.93
2018-08-03T05:17:49.090Z,10.48
2018-08-03T05:20:16.314Z,12.30
2018-08-03T05:22:43.607Z,12.73
2018-08-03T05:25:10.763Z,12.63
2018-08-03T05:27:37.936Z,12.93
2018-08-03T05:30:06.409Z,12.88
2018-08-03T05:32:33.634Z,12.37
2018-08-03T05:35:00.912Z,12.63
2018-08-03T05:37:28.155Z,12.82
2018-08-03T05:39:55.661Z,12.63
2018-08-03T05:42:22.865Z,12.33
2018-08-03T05:44:50.050Z,13.65
2018-08-03T05:47:17.233Z,12.98
2018-08-03T05:49:44.379Z,13.32
2018-08-03T05:52:11.605Z,13.65
2018-08-03T05:54:38.753Z,13.25
2018-08-03T05:57:05.954Z,13.90
2018-08-03T05:59:33.225Z,13.22
2018-08-03T06:02:00.367Z,12.93
2018-08-03T06:04:27.531Z,13.15
2018-08-03T06:06:55.417Z,13.10
2018-08-03T06:09:22.593Z,13.53
2018-08-03T06:11:49.772Z,12.55
2018-08-03T06:14:16.972Z,12.93
2018-08-03T06:16:44.142Z,12.05
2018-08-03T06:19:11.331Z,12.37
2018-08-03T06:21:38.528Z,11.93
2018-08-03T06:24:05.957Z,12.30
2018-08-03T06:26:33.189Z,11.12
2018-08-03T06:29:00.343Z,11.50
2018-08-03T06:31:27.533Z,11.70
2018-08-03T06:33:54.714Z,10.45
2018-08-03T06:36:21.937Z,10.32
2018-08-03T06:38:49.137Z,11.08
2018-08-03T06:41:16.310Z,11.33
2018-08-03T06:43:43.490Z,11.05
2018-08-03T06:46:10.677Z,11.18
2018-08-03T06:48:37.860Z,10.55
2018-08-03T06:51:05.062Z,10.72
2018-08-03T06:53:32.244Z,10.68
2018-08-03T06:55:59.470Z,10.60
2018-08-03T06:58:26.756Z,10.78
2018-08-03T07:00:54.008Z,10.55
2018-08-03T07:03:21.163Z,10.43
2018-08-03T07:05:48.330Z,10.18
2018-08-03T07:08:15.517Z,10.20
2018-08-03T07:10:42.736Z,10.53
2018-08-03T07:13:09.875Z,10.48
2018-08-03T07:15:37.056Z,9.13
2018-08-03T07:18:04.237Z,10.18
2018-08-03T07:20:31.547Z,10.72
2018-08-03T07:22:58.605Z,9.93
2018-08-03T07:25:25.812Z,10.05
2018-08-03T07:27:52.966Z,10.15
2018-08-03T07:30:20.145Z,9.65
2018-08-03T07:32:47.329Z,10.20
2018-08-03T07:35:14.500Z,9.55
2018-08-03T07:37:41.659Z,9.15
2018-08-03T07:40:08.861Z,9.35
2018-08-03T07:42:36.001Z,9.55
2018-08-03T07:45:03.268Z,9.90
2018-08-03T07:47:30.370Z,9.50
2018-08-03T07:49:57.612Z,9.25
2018-08-03T07:52:24.761Z,9.08
2018-08-03T07:54:51.942Z,8.93
2018-08-03T07:57:19.168Z,9.45
2018-08-03T07:59:46.355Z,9.38
2018-08-03T08:02:13.473Z,8.58
2018-08-03T08:04:40.660Z,9.13
2018-08-03T08:07:07.810Z,8.80
2018-08-03T08:09:34.998Z,8.88
2018-08-03T08:12:02.294Z,9.30
2018-08-03T08:14:29.456Z,9.10
2018-08-03T08:16:56.639Z,8.60
2018-08-03T08:19:23.867Z,8.68
2018-08-03T08:21:51.034Z,9.03
2018-08-03T08:24:18.233Z,8.63
2018-08-03T08:26:45.472Z,8.48
2018-08-03T08:29:12.721Z,8.80
2018-08-03T08:31:39.899Z,8.78
2018-08-03T08:34:07.046Z,8.65
2018-08-03T08:36:34.285Z,8.85
2018-08-03T08:39:01.476Z,8.35
2018-08-03T08:41:28.649Z,8.63
2018-08-03T08:43:55.937Z,8.08
2018-08-03T08:46:22.951Z,8.70
2018-08-03T08:48:50.098Z,8.53
2018-08-03T08:51:17.331Z,7.92
2018-08-03T08:53:44.633Z,8.00
2018-08-03T08:56:12.194Z,8.08
2018-08-03T08:58:39.401Z,7.58
2018-08-03T09:01:06.587Z,8.05
2018-08-03T09:03:33.722Z,7.78
2018-08-03T09:06:00.896Z,7.72
2018-08-03T09:08:28.385Z,8.10
2018-08-03T09:10:55.583Z,7.87
2018-08-03T09:13:22.734Z,8.43
2018-08-03T09:15:49.885Z,7.72
2018-08-03T09:18:17.099Z,7.42
2018-08-03T09:20:44.236Z,7.45
2018-08-03T09:23:11.413Z,7.90
2018-08-03T09:25:38.550Z,7.22
2018-08-03T09:28:06.036Z,7.87
2018-08-03T09:30:33.211Z,7.85
2018-08-03T09:33:00.387Z,7.35
2018-08-03T09:35:27.544Z,7.78
2018-08-03T09:37:54.720Z,7.67
2018-08-03T09:40:21.857Z,7.40
2018-08-03T09:42:49.011Z,7.80
2018-08-03T09:45:16.175Z,7.90
2018-08-03T09:47:43.344Z,7.92
2018-08-03T09:50:10.501Z,7.17
2018-08-03T09:52:37.617Z,7.37
2018-08-03T09:55:04.946Z,7.40
2018-08-03T09:57:32.085Z,7.50
2018-08-03T09:59:59.300Z,7.25
2018-08-03T10:02:26.425Z,6.87
2018-08-03T10:04:53.681Z,7.05
2018-08-03T10:07:20.892Z,7.50
2018-08-03T10:09:47.984Z,7.28
2018-08-03T10:12:15.154Z,7.33
2018-08-03T10:14:42.318Z,7.20
2018-08-03T10:17:09.500Z,7.47
2018-08-03T10:19:36.673Z,6.37
2018-08-03T10:22:03.845Z,6.90
2018-08-03T10:24:31.042Z,7.20
2018-08-03T10:26:58.200Z,7.05
2018-08-03T10:29:25.427Z,6.75
2018-08-03T10:31:52.559Z,7.08
2018-08-03T10:34:19.693Z,7.15
2018-08-03T10:36:46.829Z,7.25
2018-08-03T10:39:14.035Z,7.20
2018-08-03T10:41:41.265Z,6.70
2018-08-03T10:44:09.169Z,6.47
2018-08-03T10:46:36.492Z,6.72
2018-08-03T10:49:03.698Z,7.30
2018-08-03T10:51:30.858Z,6.62
2018-08-03T10:53:58.038Z,6.78
2018-08-03T10:56:25.385Z,6.65
2018-08-03T10:58:52.486Z,7.08
2018-08-03T11:01:19.714Z,6.72
2018-08-03T11:03:46.857Z,6.72
2018-08-03T11:06:14.005Z,6.47
2018-08-03T11:08:41.217Z,6.40
2018-08-03T11:11:08.349Z,6.60
2018-08-03T11:13:35.661Z,6.30
2018-08-03T11:16:02.825Z,6.50
2018-08-03T11:18:29.938Z,6.30
2018-08-03T11:20:57.132Z,6.60
2018-08-03T11:23:24.307Z,6.55
2018-08-03T11:25:51.471Z,6.67
2018-08-03T11:28:18.605Z,6.42
2018-08-03T11:30:45.794Z,6.75
2018-08-03T11:33:12.967Z,6.85
2018-08-03T11:35:40.100Z,6.42
2018-08-03T11:38:07.322Z,6.17
2018-08-03T11:40:34.457Z,6.65
2018-08-03T11:43:01.640Z,7.00
2018-08-03T11:45:28.909Z,6.75
2018-08-03T11:47:56.078Z,6.45
2018-08-03T11:50:23.225Z,6.30
2018-08-03T11:52:50.366Z,6.78
2018-08-03T11:55:17.513Z,6.35
2018-08-03T11:57:44.629Z,6.70
2018-08-03T12:00:11.843Z,6.42
2018-08-03T12:02:39.057Z,6.60
2018-08-03T12:05:06.385Z,6.33
2018-08-03T12:07:33.575Z,6.28
2018-08-03T12:10:00.726Z,6.87
2018-08-03T12:12:27.943Z,6.40
2018-08-03T12:14:55.076Z,6.20
2018-08-03T12:17:22.374Z,6.42
2018-08-03T12:19:49.678Z,6.40
2018-08-03T12:22:16.867Z,6.30
2018-08-03T12:24:44.110Z,5.90
2018-08-03T12:27:11.285Z,6.20
2018-08-03T12:29:38.510Z,6.12
2018-08-03T12:32:05.814Z,6.00
2018-08-03T12:34:33.000Z,6.28
2018-08-03T12:37:00.278Z,5.80
2018-08-03T12:39:27.481Z,6.47
2018-08-03T12:41:54.654Z,6.00
2018-08-03T12:44:21.781Z,5.75
2018-08-03T12:46:48.936Z,6.05
2018-08-03T12:49:16.089Z,6.08
2018-08-03T12:51:43.358Z,6.10
2018-08-03T12:54:10.525Z,6.37
2018-08-03T12:56:37.862Z,6.33
2018-08-03T12:59:05.003Z,6.12
2018-08-03T13:01:32.233Z,6.25
2018-08-03T13:03:59.406Z,5.80
2018-08-03T13:06:26.612Z,5.62
2018-08-03T13:08:53.769Z,5.62
2018-08-03T13:11:20.909Z,6.03
2018-08-03T13:13:48.078Z,6.03
2018-08-03T13:16:15.269Z,6.10
2018-08-03T13:18:42.422Z,5.95
2018-08-03T13:21:15.074Z,5.70
2018-08-03T13:23:47.945Z,5.90
2018-08-03T13:26:15.169Z,5.80
2018-08-03T13:28:42.345Z,5.58
2018-08-03T13:31:09.658Z,5.95
2018-08-03T13:33:36.929Z,6.05
2018-08-03T13:36:04.108Z,5.75
2018-08-03T13:38:31.287Z,5.97
2018-08-03T13:40:58.494Z,5.20
2018-08-03T13:43:25.680Z,5.90
2018-08-03T13:45:52.899Z,5.75
2018-08-03T13:48:20.100Z,5.70
2018-08-03T13:50:47.233Z,5.62
2018-08-03T13:53:14.381Z,5.72
2018-08-03T13:55:41.589Z,5.47
2018-08-03T13:58:08.870Z,5.42
2018-08-03T14:00:36.030Z,5.67
2018-08-03T14:03:03.289Z,5.67
2018-08-03T14:05:30.488Z,5.60
2018-08-03T14:07:57.620Z,5.30
2018-08-03T14:10:24.767Z,5.70
2018-08-03T14:12:51.942Z,5.67
2018-08-03T14:15:19.119Z,5.37
2018-08-03T14:17:46.609Z,5.50
2018-08-03T14:20:13.937Z,5.70
2018-08-03T14:22:41.122Z,5.58
2018-08-03T14:25:08.270Z,5.37
2018-08-03T14:27:35.631Z,5.58
2018-08-03T14:30:02.882Z,5.83
2018-08-03T14:32:30.132Z,5.47
2018-08-03T14:34:57.306Z,5.17
2018-08-03T14:37:24.691Z,5.40
2018-08-03T14:39:51.838Z,5.55
2018-08-03T14:42:19.046Z,5.87
2018-08-03T14:44:46.225Z,5.72
2018-08-03T14:47:13.465Z,5.70
2018-08-03T14:49:40.626Z,5.33
2018-08-03T14:52:07.774Z,5.37
2018-08-03T14:54:35.023Z,5.40
2018-08-03T14:57:02.161Z,5.65
2018-08-03T14:59:29.340Z,5.00
2018-08-03T15:01:56.625Z,5.50
2018-08-03T15:04:23.797Z,5.33
2018-08-03T15:06:50.918Z,5.55
2018-08-03T15:09:18.142Z,4.92
2018-08-03T15:11:45.320Z,5.28
2018-08-03T15:14:12.576Z,5.22
2018-08-03T15:16:39.751Z,5.45
2018-08-03T15:19:06.917Z,5.22
2018-08-03T15:21:34.139Z,5.15
2018-08-03T15:24:01.396Z,5.53
2018-08-03T15:26:28.602Z,5.12
2018-08-03T15:28:55.919Z,5.28
2018-08-03T15:31:23.067Z,5.37
2018-08-03T15:33:50.496Z,5.22
2018-08-03T15:36:17.724Z,5.60
2018-08-03T15:38:44.927Z,4.83
2018-08-03T15:41:12.180Z,5.25
2018-08-03T15:43:39.342Z,4.62
2018-08-03T15:46:06.579Z,5.30
2018-08-03T15:48:33.782Z,5.30
2018-08-03T15:51:01.126Z,5.35
2018-08-03T15:53:28.328Z,5.33
2018-08-03T15:55:55.511Z,5.25
2018-08-03T15:58:22.671Z,4.85
2018-08-03T16:00:49.822Z,4.37
2018-08-03T16:03:16.968Z,5.25
2018-08-03T16:05:44.117Z,4.95
2018-08-03T16:08:11.300Z,4.92
2018-08-03T16:10:38.489Z,5.00
2018-08-03T16:13:05.734Z,5.40
2018-08-03T16:15:32.931Z,4.60
2018-08-03T16:18:00.085Z,4.75
2018-08-03T16:20:27.283Z,5.10
2018-08-03T16:22:54.491Z,5.00
2018-08-03T16:25:21.688Z,4.83
2018-08-03T16:27:48.870Z,4.78
2018-08-03T16:30:16.071Z,5.22
2018-08-03T16:32:43.336Z,4.97
2018-08-03T16:35:10.945Z,5.10
2018-08-03T16:37:38.103Z,5.05
2018-08-03T16:40:06.030Z,4.80
2018-08-03T16:42:33.137Z,4.70
2018-08-03T16:45:00.398Z,4.72
2018-08-03T16:47:27.625Z,5.15
2018-08-03T16:49:54.807Z,5.22
2018-08-03T16:52:21.977Z,4.45
2018-08-03T16:54:49.217Z,4.72
2018-08-03T16:57:16.358Z,4.85
2018-08-03T17:02:17.133Z,5.30
2018-08-03T17:04:44.347Z,4.65
2018-08-03T17:07:12.674Z,4.95
2018-08-03T17:09:39.797Z,5.10
2018-08-03T17:12:07.021Z,5.05
2018-08-03T17:14:34.182Z,5.00
2018-08-03T17:17:01.366Z,4.67
2018-08-03T17:19:28.527Z,4.90
2018-08-03T17:21:55.675Z,4.75
2018-08-03T17:24:22.897Z,5.17
2018-08-03T17:26:50.067Z,5.12
2018-08-03T17:29:17.220Z,4.47
2018-08-03T17:31:44.408Z,4.83
2018-08-03T17:34:11.576Z,4.75
2018-08-03T17:36:38.814Z,5.00
2018-08-03T17:39:07.133Z,4.67
2018-08-03T17:41:34.265Z,4.87
2018-08-03T17:44:01.471Z,4.87
2018-08-03T17:46:28.670Z,4.40
2018-08-03T17:48:55.781Z,4.35
2018-08-03T17:51:23.011Z,4.83
2018-08-03T17:53:50.166Z,4.75
2018-08-03T17:56:17.318Z,4.80
2018-08-03T17:58:44.469Z,4.58
2018-08-03T18:01:11.654Z,4.83
2018-08-03T18:03:38.773Z,4.42
2018-08-03T18:06:05.928Z,4.87
2018-08-03T18:08:33.099Z,4.62
2018-08-03T18:11:00.281Z,4.30
2018-08-03T18:13:27.452Z,4.65
2018-08-03T18:15:54.699Z,4.78
2018-08-03T18:18:21.809Z,4.85
2018-08-03T18:20:49.048Z,4.72
2018-08-03T18:23:16.237Z,5.17
2018-08-03T18:25:43.512Z,4.40
2018-08-03T18:28:10.756Z,4.58
2018-08-03T18:30:37.864Z,4.70
2018-08-03T18:33:05.096Z,4.22
2018-08-03T18:35:32.225Z,4.42
2018-08-03T18:37:59.381Z,4.62
2018-08-03T18:40:26.614Z,4.80
2018-08-03T18:42:53.783Z,4.45
2018-08-03T18:45:21.822Z,4.37
2018-08-03T18:47:49.000Z,4.47
2018-08-03T18:50:16.162Z,4.20
2018-08-03T18:52:43.317Z,4.47
2018-08-03T18:55:10.490Z,4.50
2018-08-03T18:57:37.685Z,4.40
2018-08-03T19:00:04.894Z,4.35
2018-08-03T19:02:32.040Z,4.50
2018-08-03T19:04:59.191Z,4.55
2018-08-03T19:07:26.390Z,4.50
2018-08-03T19:09:53.587Z,4.37
2018-08-03T19:12:20.754Z,4.28
2018-08-03T19:14:47.926Z,4.20
2018-08-03T19:17:15.090Z,4.47
2018-08-03T19:19:42.278Z,4.03
2018-08-03T19:22:09.449Z,4.33
2018-08-03T19:24:36.603Z,4.30
2018-08-03T19:27:03.818Z,4.10
2018-08-03T19:29:30.932Z,4.17
2018-08-03T19:31:58.198Z,4.10
2018-08-03T19:34:25.376Z,3.80
2018-08-03T19:36:52.670Z,4.10
2018-08-03T19:39:21.617Z,4.85
2018-08-03T19:41:48.753Z,4.35
2018-08-03T19:44:15.914Z,3.87
2018-08-03T19:46:43.097Z,4.15
2018-08-03T19:49:10.339Z,4.28
2018-08-03T19:51:37.618Z,4.30
2018-08-03T19:54:04.840Z,4.00
2018-08-03T19:56:32.115Z,3.87
2018-08-03T19:58:59.426Z,4.05
2018-08-03T20:01:26.631Z,3.60
2018-08-03T20:03:53.914Z,3.65
2018-08-03T20:06:21.056Z,3.87
2018-08-03T20:08:48.250Z,3.80
2018-08-03T20:11:15.472Z,3.60
2018-08-03T20:13:42.777Z,3.67
2018-08-03T20:16:09.850Z,3.87
2018-08-03T20:18:37.126Z,3.87
2018-08-03T20:21:04.349Z,3.90
2018-08-03T20:23:32.106Z,4.22
2018-08-03T20:25:59.232Z,3.90
2018-08-03T20:28:26.505Z,3.33
2018-08-03T20:30:54.182Z,3.77
2018-08-03T20:33:21.447Z,3.98
2018-08-03T20:35:48.720Z,3.60
2018-08-03T20:38:15.958Z,3.22
2018-08-03T20:40:43.186Z,3.50
2018-08-03T20:43:10.483Z,3.33
2018-08-03T20:45:37.720Z,3.70
2018-08-03T20:49:08.168Z,3.40
2018-08-03T20:51:35.326Z,3.72
2018-08-03T20:54:02.529Z,3.55
2018-08-03T20:56:29.688Z,3.50
2018-08-03T20:58:57.058Z,3.65
2018-08-03T21:01:24.328Z,3.50
2018-08-03T21:03:51.639Z,3.52
2018-08-03T21:06:18.813Z,3.52
2018-08-03T21:08:46.106Z,3.37
2018-08-03T21:11:13.273Z,2.98
2018-08-03T21:13:40.414Z,3.47
2018-08-03T21:16:07.650Z,3.30
2018-08-03T21:18:34.837Z,3.50
2018-08-03T21:21:02.008Z,3.40
2018-08-03T21:23:29.213Z,3.22
2018-08-03T21:25:56.383Z,3.02
2018-08-03T21:28:23.538Z,3.47
2018-08-03T21:30:50.851Z,3.20
2018-08-03T21:33:18.060Z,3.20
2018-08-03T21:35:45.232Z,2.98
2018-08-03T21:38:12.648Z,3.20
2018-08-03T21:40:39.848Z,3.08
2018-08-03T21:43:07.012Z,2.83
2018-08-03T21:45:34.337Z,3.08
2018-08-03T21:48:01.526Z,3.02
2018-08-03T21:50:28.665Z,3.10
2018-08-03T21:52:55.837Z,2.98
2018-08-03T21:55:22.976Z,3.05
2018-08-03T21:57:50.131Z,2.95
2018-08-03T22:00:18.405Z,3.22
2018-08-03T22:02:45.629Z,3.02
2018-08-03T22:05:12.849Z,2.92
2018-08-03T22:07:40.079Z,2.87
2018-08-03T22:10:07.335Z,2.87
2018-08-03T22:12:34.635Z,2.98
2018-08-03T22:15:01.886Z,2.92
2018-08-03T22:17:29.055Z,2.80
2018-08-03T22:19:56.341Z,2.65
2018-08-03T22:22:23.501Z,3.12
2018-08-03T22:24:51.163Z,2.90
2018-08-03T22:27:18.396Z,2.95
2018-08-03T22:29:46.561Z,3.02
2018-08-03T22:32:13.689Z,2.90
2018-08-03T22:34:40.909Z,2.70
2018-08-03T22:37:08.058Z,2.95
2018-08-03T22:39:35.284Z,2.62
2018-08-03T22:42:02.593Z,2.75
2018-08-03T22:44:29.791Z,2.83
2018-08-03T22:46:57.058Z,2.50
2018-08-03T22:49:24.349Z,2.40
2018-08-03T22:51:51.633Z,2.60
2018-08-03T22:54:18.828Z,2.70
2018-08-03T22:56:46.019Z,2.80
2018-08-03T22:59:13.199Z,2.65
2018-08-03T23:01:40.345Z,3.00
2018-08-03T23:04:07.515Z,2.47
2018-08-03T23:06:34.680Z,2.45
2018-08-03T23:09:01.873Z,2.90
2018-08-03T23:11:29.070Z,2.80
2018-08-03T23:13:56.260Z,2.83
2018-08-03T23:16:23.377Z,2.42
2018-08-03T23:18:50.558Z,2.83
2018-08-03T23:21:17.738Z,2.87
2018-08-03T23:23:44.924Z,2.67
2018-08-03T23:26:12.116Z,2.83
2018-08-03T23:28:39.306Z,2.72
2018-08-03T23:31:06.503Z,2.33
2018-08-03T23:33:33.686Z,2.70
2018-08-03T23:36:00.860Z,2.67
2018-08-03T23:38:28.027Z,2.47
2018-08-03T23:40:55.197Z,2.30
2018-08-03T23:43:22.346Z,2.62
2018-08-03T23:45:49.497Z,2.45
2018-08-03T23:48:16.646Z,2.60
2018-08-03T23:50:43.834Z,2.20
2018-08-03T23:53:11.074Z,2.45
2018-08-03T23:55:38.295Z,2.52
2018-08-03T23:58:05.449Z,2.55
